Time;durP1;ratioP1;P1;durP2;ratioP2;P2;SDS_P1;SDS_P2;PMS_P1;PMS_P2;Temp;Humidity;BMP_temperature;BMP_pressure;BME280_temperature;BME280_humidity;BME280_pressure;Samples;Min_cycle;Max_cycle;Signal;HPM_P1;HPM_P2
2022/02/27 00:02:16;;;;;;;3.93;2.73;;;;;;;1.69;81.91;102548.66;5048642;28;20253;-77
2022/02/27 00:04:42;;;;;;;6.43;2.30;;;;;;;1.71;81.27;102552.19;5049137;28;20208;-77
2022/02/27 00:07:08;;;;;;;3.77;2.20;;;;;;;1.81;81.57;102550.97;5048355;28;20684;-77
2022/02/27 00:09:35;;;;;;;5.57;2.40;;;;;;;1.90;81.02;102566.00;5048474;28;20234;-77
2022/02/27 00:12:03;;;;;;;4.90;2.50;;;;;;;1.93;80.84;102576.47;5049041;28;20202;-77
2022/02/27 00:14:29;;;;;;;7.97;2.30;;;;;;;1.82;80.68;102575.91;5037136;28;20252;-77
2022/02/27 00:16:55;;;;;;;5.50;2.40;;;;;;;1.87;80.89;102573.59;5035548;28;20211;-76
2022/02/27 00:19:23;;;;;;;4.77;2.40;;;;;;;1.96;80.33;102587.81;5034756;28;20609;-77
2022/02/27 00:21:50;;;;;;;5.27;2.57;;;;;;;2.02;79.83;102596.63;5034598;28;20228;-77
2022/02/27 00:24:16;;;;;;;5.83;2.27;;;;;;;2.11;79.73;102597.13;5035017;28;20253;-76
2022/02/27 00:26:43;;;;;;;5.60;3.03;;;;;;;2.16;79.10;102611.09;5034837;28;20203;-76
2022/02/27 00:29:11;;;;;;;6.80;5.03;;;;;;;2.19;78.18;102637.03;5034696;28;20650;-77
2022/02/27 00:31:37;;;;;;;7.23;4.90;;;;;;;2.16;77.02;102670.34;5034827;28;20207;-76
2022/02/27 00:34:04;;;;;;;7.57;5.63;;;;;;;2.05;76.85;102681.81;5034658;28;20212;-76
2022/02/27 00:36:30;;;;;;;12.70;6.87;;;;;;;1.89;77.95;102669.81;5034952;28;20256;-77
2022/02/27 00:38:56;;;;;;;13.63;6.60;;;;;;;1.78;78.42;102664.09;5034573;28;20621;-77
2022/02/27 00:41:23;;;;;;;9.17;6.50;;;;;;;1.71;78.86;102646.56;5034301;28;20214;-77
2022/02/27 00:43:49;;;;;;;8.13;5.90;;;;;;;1.75;78.99;102643.34;5034558;28;20222;-77
2022/02/27 00:46:17;;;;;;;9.50;6.23;;;;;;;1.65;79.50;102625.66;5035355;28;20210;-77
2022/02/27 00:48:45;;;;;;;7.00;6.03;;;;;;;1.52;79.56;102624.09;5034609;28;20226;-76
2022/02/27 00:51:11;;;;;;;9.73;5.63;;;;;;;1.44;79.72;102618.53;5034097;28;20214;-77
2022/02/27 00:53:38;;;;;;;5.50;5.00;;;;;;;1.43;79.87;102614.22;5034128;28;20206;-77
2022/02/27 00:56:05;;;;;;;7.00;5.20;;;;;;;1.34;80.31;102609.44;5034606;28;20210;-76
2022/02/27 00:58:31;;;;;;;9.07;4.77;;;;;;;1.38;80.05;102595.94;5033758;28;20268;-76
2022/02/27 01:00:58;;;;;;;8.07;4.30;;;;;;;1.34;80.58;102578.56;5033499;28;20260;-76
2022/02/27 01:03:25;;;;;;;3.73;2.83;;;;;;;1.24;80.94;102568.59;5033179;28;20222;-76
2022/02/27 01:05:52;;;;;;;6.07;2.80;;;;;;;1.29;81.41;102550.81;5033594;28;20253;-76
2022/02/27 01:08:18;;;;;;;3.77;2.63;;;;;;;1.35;80.79;102553.75;5033155;28;20697;-77
2022/02/27 01:10:44;;;;;;;7.70;2.93;;;;;;;1.40;81.49;102560.00;5032993;28;20202;-77
2022/02/27 01:13:11;;;;;;;3.93;2.63;;;;;;;1.40;81.05;102575.44;5033540;28;20202;-76
2022/02/27 01:15:37;;;;;;;5.13;4.00;;;;;;;1.39;80.08;102573.69;5033335;28;20205;-76
2022/02/27 01:18:04;;;;;;;6.00;4.07;;;;;;;1.37;80.60;102578.75;5033141;28;20569;-77
2022/02/27 01:20:31;;;;;;;5.90;3.63;;;;;;;1.32;80.46;102587.88;5032653;28;20643;-77
2022/02/27 01:22:58;;;;;;;6.47;4.50;;;;;;;1.21;80.60;102586.44;5033101;28;20642;-77
2022/02/27 01:25:24;;;;;;;6.87;4.43;;;;;;;1.15;81.43;102570.66;5032040;28;20206;-76
2022/02/27 01:27:50;;;;;;;7.00;3.80;;;;;;;1.03;80.55;102568.34;5033021;28;20206;-76
2022/02/27 01:30:17;;;;;;;7.47;2.97;;;;;;;1.05;80.82;102578.69;5032794;28;20280;-76
2022/02/27 01:32:43;;;;;;;4.20;2.63;;;;;;;1.00;81.01;102575.88;5032937;28;20209;-76
2022/02/27 01:35:10;;;;;;;2.87;2.17;;;;;;;0.84;81.28;102566.44;5032847;28;20205;-76
2022/02/27 01:37:37;;;;;;;4.13;2.60;;;;;;;0.78;82.11;102554.13;5032735;28;20252;-76
2022/02/27 01:40:06;;;;;;;4.83;2.77;;;;;;;0.81;81.85;102555.97;5032332;28;20260;-77
2022/02/27 01:42:32;;;;;;;8.37;3.27;;;;;;;0.75;82.37;102530.84;5032904;28;20272;-77
2022/02/27 01:45:03;;;;;;;5.73;2.77;;;;;;;0.78;81.71;102546.41;5033078;28;20252;-77
2022/02/27 01:47:29;;;;;;;3.67;2.60;;;;;;;0.73;81.97;102544.38;5032625;28;20677;-77
2022/02/27 01:49:56;;;;;;;10.00;2.97;;;;;;;0.63;82.33;102552.38;5032294;28;20221;-77
2022/02/27 01:52:22;;;;;;;4.57;3.07;;;;;;;0.61;82.01;102548.84;5033801;28;20735;-77
2022/02/27 01:54:50;;;;;;;6.77;2.87;;;;;;;0.63;83.00;102531.81;5033674;28;20673;-77
2022/02/27 01:57:16;;;;;;;3.80;2.70;;;;;;;0.59;82.91;102523.97;5033858;28;20214;-77
2022/02/27 01:59:43;;;;;;;5.60;3.10;;;;;;;0.66;82.76;102519.16;5033363;28;20222;-77
2022/02/27 02:02:10;;;;;;;7.13;3.40;;;;;;;0.71;83.21;102510.00;5032483;28;20272;-77
2022/02/27 02:04:38;;;;;;;6.93;2.90;;;;;;;0.71;83.09;102505.72;5032533;28;20637;-77
2022/02/27 02:07:05;;;;;;;4.67;3.33;;;;;;;0.74;82.85;102505.03;5032258;28;20214;-77
2022/02/27 02:09:31;;;;;;;6.30;3.03;;;;;;;0.78;83.76;102507.84;5032752;28;20225;-77
2022/02/27 02:12:00;;;;;;;7.80;3.80;;;;;;;0.77;83.83;102500.97;5032605;28;20207;-77
2022/02/27 02:14:27;;;;;;;5.10;3.53;;;;;;;0.73;83.11;102499.03;5032456;28;20206;-78
2022/02/27 02:16:54;;;;;;;4.67;2.90;;;;;;;0.75;83.76;102507.69;5032795;28;20256;-78
2022/02/27 02:19:22;;;;;;;5.30;3.73;;;;;;;0.78;82.87;102502.72;5032193;28;20280;-78
2022/02/27 02:21:51;;;;;;;5.30;3.27;;;;;;;0.73;83.21;102505.81;5032403;28;20210;-78
2022/02/27 02:24:19;;;;;;;3.90;3.20;;;;;;;0.77;82.66;102508.66;5033107;28;20712;-77
2022/02/27 02:26:46;;;;;;;11.33;4.33;;;;;;;0.74;84.04;102507.59;5033370;28;20210;-78
2022/02/27 02:29:15;;;;;;;5.87;3.40;;;;;;;0.75;83.55;102486.22;5032677;28;20245;-78
2022/02/27 02:31:45;;;;;;;8.30;3.30;;;;;;;0.81;84.14;102490.81;5032877;28;20579;-77
2022/02/27 02:34:13;;;;;;;7.00;3.33;;;;;;;0.84;84.12;102485.84;5032815;28;20669;-78
2022/02/27 02:36:42;;;;;;;3.93;2.63;;;;;;;0.72;84.04;102479.25;5032840;28;20210;-78
2022/02/27 02:39:12;;;;;;;5.43;3.33;;;;;;;0.78;84.46;102477.00;5033184;28;20284;-78
2022/02/27 02:41:39;;;;;;;4.43;3.00;;;;;;;0.81;84.34;102475.41;5034421;28;20210;-77
2022/02/27 02:44:06;;;;;;;4.17;2.97;;;;;;;0.87;84.12;102474.03;5037329;28;20588;-77
2022/02/27 02:46:35;;;;;;;3.33;3.00;;;;;;;0.90;83.48;102483.63;5037476;28;20233;-78
2022/02/27 02:49:01;;;;;;;4.53;3.30;;;;;;;0.83;83.61;102490.09;5037039;28;20325;-77
2022/02/27 02:51:28;;;;;;;5.47;3.00;;;;;;;0.78;82.89;102492.44;5036818;28;20202;-77
2022/02/27 02:53:54;;;;;;;6.97;3.30;;;;;;;0.72;83.43;102486.09;5041016;28;20438;-78
2022/02/27 02:56:22;;;;;;;8.30;3.17;;;;;;;0.65;84.30;102481.41;5040136;28;20210;-78
2022/02/27 02:58:49;;;;;;;4.90;2.87;;;;;;;0.56;84.26;102476.66;5037918;28;20336;-79
2022/02/27 03:01:17;;;;;;;5.67;3.53;;;;;;;0.60;83.49;102481.16;5036844;28;20256;-79
2022/02/27 03:03:45;;;;;;;3.97;3.00;;;;;;;0.54;84.25;102473.13;5038202;28;20226;-79
2022/02/27 03:06:12;;;;;;;6.43;3.10;;;;;;;0.49;84.18;102470.28;5041662;28;20283;-79
2022/02/27 03:08:39;;;;;;;7.07;3.87;;;;;;;0.40;83.75;102472.34;5041913;28;20226;-78
2022/02/27 03:11:05;;;;;;;5.53;3.50;;;;;;;0.44;83.86;102473.38;5036445;28;20206;-80
2022/02/27 03:13:33;;;;;;;4.23;3.17;;;;;;;0.44;84.03;102473.38;5033869;28;20206;-79
2022/02/27 03:16:00;;;;;;;6.97;4.20;;;;;;;0.41;84.20;102468.09;5033414;28;20258;-79
2022/02/27 03:18:26;;;;;;;5.40;3.90;;;;;;;0.40;83.25;102480.06;5032812;28;20206;-79
2022/02/27 03:20:53;;;;;;;6.67;3.43;;;;;;;0.46;82.95;102493.25;5032492;28;20245;-79
2022/02/27 03:23:19;;;;;;;8.17;3.17;;;;;;;0.44;83.08;102493.94;5033136;28;20222;-79
2022/02/27 03:25:45;;;;;;;4.87;3.70;;;;;;;0.27;82.88;102495.56;5032432;28;20303;-79
2022/02/27 03:28:12;;;;;;;5.83;3.20;;;;;;;0.27;84.00;102486.19;5032431;28;20260;-79
2022/02/27 03:30:39;;;;;;;4.40;2.97;;;;;;;0.26;83.70;102486.09;5032538;28;20287;-79
2022/02/27 03:33:07;;;;;;;7.87;4.50;;;;;;;0.24;83.68;102470.63;5032757;28;20555;-79
2022/02/27 03:35:35;;;;;;;5.77;3.57;;;;;;;0.24;83.70;102473.19;5032736;28;20236;-79
2022/02/27 03:38:02;;;;;;;5.87;3.57;;;;;;;0.25;84.22;102461.22;5032661;28;20202;-79
2022/02/27 03:40:28;;;;;;;4.63;3.40;;;;;;;0.22;84.67;102451.66;5032786;28;20222;-79
2022/02/27 03:42:55;;;;;;;5.07;3.90;;;;;;;0.15;85.92;102431.56;5032326;28;20700;-79
2022/02/27 03:45:21;;;;;;;8.23;3.67;;;;;;;0.16;86.35;102412.81;5032695;28;20214;-79
2022/02/27 03:47:49;;;;;;;4.10;3.40;;;;;;;0.16;85.71;102417.94;5032510;28;20218;-79
2022/02/27 03:50:18;;;;;;;5.90;3.97;;;;;;;0.18;85.09;102424.94;5035799;28;20214;-79
2022/02/27 03:52:45;;;;;;;4.83;3.00;;;;;;;0.21;85.02;102441.31;5035692;28;20202;-77
2022/02/27 03:55:14;;;;;;;5.60;2.97;;;;;;;0.22;84.37;102448.19;5035267;28;20228;-77
2022/02/27 03:57:40;;;;;;;5.00;3.13;;;;;;;0.17;84.33;102450.50;5035463;28;20245;-77
2022/02/27 04:00:10;;;;;;;5.93;3.13;;;;;;;0.13;84.61;102459.72;5035033;28;20256;-77
2022/02/27 04:02:36;;;;;;;5.07;3.67;;;;;;;0.14;84.49;102463.16;5035987;28;20411;-79
2022/02/27 04:05:05;;;;;;;5.20;3.13;;;;;;;0.12;84.22;102452.84;5036132;28;20230;-80
2022/02/27 04:07:32;;;;;;;3.77;2.83;;;;;;;0.15;84.56;102444.41;5035930;28;20630;-77
2022/02/27 04:09:58;;;;;;;4.17;3.03;;;;;;;0.16;84.58;102443.63;5035834;28;20284;-79
2022/02/27 04:12:24;;;;;;;5.03;2.53;;;;;;;0.14;84.82;102455.47;5037180;28;20256;-80
2022/02/27 04:14:51;;;;;;;4.03;3.03;;;;;;;0.22;84.24;102467.06;5036206;28;20676;-79
2022/02/27 04:17:17;;;;;;;5.90;3.30;;;;;;;0.13;84.50;102470.00;5036676;28;20207;-79
2022/02/27 04:19:44;;;;;;;8.00;3.77;;;;;;;0.14;83.61;102476.91;5036102;28;20252;-79
2022/02/27 04:22:11;;;;;;;6.27;3.63;;;;;;;0.11;83.60;102484.44;5036398;28;20253;-80
2022/02/27 04:24:38;;;;;;;5.23;3.60;;;;;;;0.06;83.41;102488.44;5036580;28;20226;-80
2022/02/27 04:27:04;;;;;;;7.50;3.40;;;;;;;0.02;82.78;102490.72;5036637;28;20229;-79
2022/02/27 04:29:30;;;;;;;4.20;2.70;;;;;;;0.01;83.49;102483.84;5036694;28;20716;-80
2022/02/27 04:31:57;;;;;;;4.23;3.30;;;;;;;-0.01;84.07;102482.03;5036399;28;20264;-79
2022/02/27 04:34:23;;;;;;;5.60;3.33;;;;;;;-0.10;84.73;102462.66;5036650;28;20260;-79
2022/02/27 04:36:49;;;;;;;3.80;2.73;;;;;;;-0.05;84.54;102459.56;5035870;28;20210;-80
2022/02/27 04:39:17;;;;;;;4.30;3.33;;;;;;;-0.05;84.41;102454.44;5035832;28;20609;-80
2022/02/27 04:41:43;;;;;;;4.50;3.30;;;;;;;-0.06;84.66;102444.97;5036038;28;20684;-79
2022/02/27 04:44:10;;;;;;;8.50;3.83;;;;;;;-0.02;84.71;102452.06;5036388;28;20272;-80
2022/02/27 04:46:36;;;;;;;6.17;3.77;;;;;;;-0.08;84.97;102449.16;5036806;28;20272;-79
2022/02/27 04:49:03;;;;;;;6.93;3.63;;;;;;;-0.03;84.79;102452.84;5036674;28;20229;-80
2022/02/27 04:51:29;;;;;;;8.27;4.10;;;;;;;-0.01;84.95;102451.25;5036061;28;20205;-79
2022/02/27 04:53:55;;;;;;;4.83;4.17;;;;;;;-0.02;85.25;102448.56;5036826;28;20206;-80
2022/02/27 04:56:23;;;;;;;7.77;3.90;;;;;;;0.03;84.97;102439.47;5036645;28;20207;-80
2022/02/27 04:58:50;;;;;;;6.33;4.60;;;;;;;0.02;85.87;102421.41;5035934;28;20724;-80
2022/02/27 05:01:16;;;;;;;6.37;3.20;;;;;;;0.02;85.25;102421.41;5036458;28;20204;-80
2022/02/27 05:03:42;;;;;;;4.53;3.80;;;;;;;0.04;85.17;102432.66;5036956;28;20599;-79
2022/02/27 05:06:10;;;;;;;6.87;3.83;;;;;;;0.03;84.46;102447.16;5036141;28;20630;-79
2022/02/27 05:08:36;;;;;;;5.70;3.90;;;;;;;-0.03;84.50;102463.09;5036468;28;20206;-79
2022/02/27 05:11:03;;;;;;;7.17;4.07;;;;;;;-0.05;84.31;102462.13;5036160;28;20766;-79
2022/02/27 05:13:30;;;;;;;6.33;3.50;;;;;;;-0.10;83.90;102470.38;5037112;28;20677;-79
2022/02/27 05:15:57;;;;;;;3.43;3.13;;;;;;;-0.09;83.48;102482.41;5036195;28;20210;-80
2022/02/27 05:18:23;;;;;;;6.60;4.00;;;;;;;-0.14;84.15;102481.25;5036546;28;20210;-79
2022/02/27 05:20:49;;;;;;;7.00;4.47;;;;;;;-0.28;84.42;102471.09;5035408;28;20245;-79
2022/02/27 05:23:16;;;;;;;6.80;4.27;;;;;;;-0.26;85.05;102451.53;5062619;22;20232;-80
2022/02/27 05:25:43;;;;;;;5.23;4.57;;;;;;;-0.27;85.38;102454.00;5042718;28;20214;-80
2022/02/27 05:28:09;;;;;;;6.60;4.43;;;;;;;-0.30;85.16;102443.56;5034397;28;20214;-80
2022/02/27 05:30:37;;;;;;;11.00;5.60;;;;;;;-0.32;85.56;102446.03;5034203;28;20206;-79
2022/02/27 05:33:03;;;;;;;6.00;4.20;;;;;;;-0.36;85.19;102444.09;5034509;28;20224;-79
2022/02/27 05:35:30;;;;;;;6.67;4.63;;;;;;;-0.36;85.07;102448.34;5055846;28;20213;-80
2022/02/27 05:37:56;;;;;;;7.00;4.87;;;;;;;-0.42;84.83;102454.91;5057968;28;20204;-80
2022/02/27 05:40:22;;;;;;;7.17;4.83;;;;;;;-0.39;84.99;102449.06;5059402;28;20223;-78
2022/02/27 05:42:49;;;;;;;6.57;4.10;;;;;;;-0.49;84.79;102459.56;5037072;28;20299;-78
2022/02/27 05:45:15;;;;;;;6.57;4.20;;;;;;;-0.54;85.43;102458.41;5034311;28;20225;-79
2022/02/27 05:47:44;;;;;;;6.07;4.40;;;;;;;-0.54;85.82;102449.03;5037478;28;20209;-80
2022/02/27 05:50:10;;;;;;;7.13;4.57;;;;;;;-0.47;85.64;102438.34;5043366;28;20205;-78
2022/02/27 05:52:37;;;;;;;6.73;4.53;;;;;;;-0.46;85.66;102440.09;5054005;28;20248;-79
2022/02/27 05:55:04;;;;;;;5.20;4.00;;;;;;;-0.39;85.89;102443.91;5054115;28;20679;-80
2022/02/27 05:57:31;;;;;;;7.67;4.00;;;;;;;-0.33;85.22;102454.53;5054101;28;20351;-78
2022/02/27 05:59:57;;;;;;;5.27;4.40;;;;;;;-0.31;85.18;102459.75;5053467;28;20239;-78
2022/02/27 06:02:23;;;;;;;6.13;4.30;;;;;;;-0.27;85.03;102465.16;5053621;28;20201;-79
2022/02/27 06:04:51;;;;;;;6.10;3.80;;;;;;;-0.23;85.07;102469.66;5053831;28;20225;-80
2022/02/27 06:07:17;;;;;;;5.73;3.80;;;;;;;-0.18;85.71;102466.47;5054079;28;20206;-80
2022/02/27 06:09:44;;;;;;;7.13;4.13;;;;;;;-0.18;85.18;102463.91;5053610;28;20227;-80
2022/02/27 06:12:10;;;;;;;6.07;5.23;;;;;;;-0.16;85.51;102462.31;5053307;28;20618;-79
2022/02/27 06:14:37;;;;;;;6.23;4.37;;;;;;;-0.12;85.33;102466.81;5054064;28;20201;-80
2022/02/27 06:17:03;;;;;;;6.43;4.43;;;;;;;-0.09;85.56;102465.31;5053329;28;20210;-79
2022/02/27 06:19:30;;;;;;;8.33;4.07;;;;;;;-0.14;85.07;102465.84;5053278;28;20255;-81
2022/02/27 06:21:58;;;;;;;5.93;4.10;;;;;;;-0.12;85.53;102461.69;5053549;28;20198;-80
2022/02/27 06:24:24;;;;;;;11.10;5.13;;;;;;;-0.12;85.71;102461.69;5052960;28;20874;-80
2022/02/27 06:26:50;;;;;;;10.67;4.57;;;;;;;-0.10;86.13;102455.88;5053065;28;20622;-80
2022/02/27 06:29:17;;;;;;;4.97;4.43;;;;;;;-0.03;86.18;102454.53;5053079;28;20623;-79
2022/02/27 06:31:43;;;;;;;11.07;5.23;;;;;;;0.02;86.90;102447.06;5053104;28;20205;-80
2022/02/27 06:34:09;;;;;;;8.13;4.67;;;;;;;0.03;86.91;102446.28;5053751;28;20282;-80
2022/02/27 06:36:36;;;;;;;6.33;5.13;;;;;;;0.09;86.33;102439.81;5053462;28;20260;-81
2022/02/27 06:39:03;;;;;;;10.10;5.13;;;;;;;0.15;86.94;102447.84;5053300;28;20202;-80
2022/02/27 06:41:30;;;;;;;7.17;4.73;;;;;;;0.13;86.48;102446.88;5053099;28;20338;-79
2022/02/27 06:43:56;;;;;;;6.47;4.87;;;;;;;0.19;87.29;102441.22;5053619;28;20305;-78
2022/02/27 06:46:22;;;;;;;7.13;5.13;;;;;;;0.26;87.32;102439.84;5053251;28;20585;-79
2022/02/27 06:48:49;;;;;;;8.10;4.53;;;;;;;0.36;87.55;102449.88;5053443;28;20231;-79
2022/02/27 06:51:15;;;;;;;7.93;4.77;;;;;;;0.37;86.80;102446.47;5052913;28;20259;-79
2022/02/27 06:53:42;;;;;;;8.33;4.93;;;;;;;0.44;87.27;102447.69;5053502;28;20225;-79
2022/02/27 06:56:10;;;;;;;6.53;4.83;;;;;;;0.50;86.86;102450.63;5052905;28;20262;-78
2022/02/27 06:58:36;;;;;;;12.03;4.40;;;;;;;0.53;87.12;102453.34;5052696;28;20201;-79
2022/02/27 07:01:02;;;;;;;8.63;5.83;;;;;;;0.59;86.80;102454.59;5052999;28;20209;-78
2022/02/27 07:03:29;;;;;;;12.20;5.73;;;;;;;0.62;86.97;102456.44;5052671;28;20255;-78
2022/02/27 07:05:55;;;;;;;6.30;5.00;;;;;;;0.63;86.64;102457.31;5053212;28;20283;-78
2022/02/27 07:08:21;;;;;;;5.17;4.47;;;;;;;0.72;86.58;102462.94;5052968;28;20209;-80
2022/02/27 07:10:48;;;;;;;9.77;5.30;;;;;;;0.77;86.38;102466.63;5052463;28;20232;-79
2022/02/27 07:13:15;;;;;;;7.23;4.83;;;;;;;0.82;86.48;102475.50;5052370;28;20719;-79
2022/02/27 07:15:42;;;;;;;11.33;4.97;;;;;;;0.82;85.82;102480.63;5052891;28;20254;-77
2022/02/27 07:18:08;;;;;;;7.17;5.40;;;;;;;0.81;86.65;102481.41;5052622;28;20742;-80
2022/02/27 07:20:34;;;;;;;9.20;5.27;;;;;;;0.88;86.54;102483.53;5052381;28;20258;-79
2022/02/27 07:23:01;;;;;;;7.60;4.27;;;;;;;0.94;86.43;102485.53;5052370;28;20256;-80
2022/02/27 07:25:27;;;;;;;6.13;5.30;;;;;;;0.98;86.21;102488.34;5056697;28;20260;-79
2022/02/27 07:27:53;;;;;;;10.13;5.67;;;;;;;1.05;85.75;102497.28;5058524;28;20582;-80
2022/02/27 07:30:21;;;;;;;7.33;4.77;;;;;;;1.07;85.46;102508.53;5056179;28;20251;-80
2022/02/27 07:32:48;;;;;;;9.10;5.33;;;;;;;1.07;86.15;102505.97;5057129;28;20268;-79
2022/02/27 07:35:14;;;;;;;10.00;5.83;;;;;;;1.07;85.74;102505.06;5056639;28;20202;-79
2022/02/27 07:37:40;;;;;;;9.60;5.90;;;;;;;1.13;85.52;102510.53;5056170;28;20209;-78
2022/02/27 07:40:07;;;;;;;9.20;5.37;;;;;;;1.11;86.14;102507.91;5056551;28;20205;-78
2022/02/27 07:42:34;;;;;;;7.30;6.03;;;;;;;1.16;86.08;102490.13;5056828;28;20230;-80
2022/02/27 07:45:01;;;;;;;6.60;5.90;;;;;;;1.19;86.03;102491.19;5056800;28;20232;-77
2022/02/27 07:47:28;;;;;;;8.60;6.73;;;;;;;1.24;86.84;102500.84;5056712;28;20261;-78
2022/02/27 07:49:55;;;;;;;7.73;6.40;;;;;;;1.26;86.04;102494.06;5056988;28;20201;-79
2022/02/27 07:52:21;;;;;;;11.57;6.23;;;;;;;1.28;86.34;102490.78;5057011;28;20209;-80
2022/02/27 07:54:48;;;;;;;8.57;6.23;;;;;;;1.35;86.47;102494.56;5057183;28;20239;-79
2022/02/27 07:57:14;;;;;;;10.10;6.40;;;;;;;1.40;86.31;102503.38;5057393;28;20203;-78
2022/02/27 07:59:41;;;;;;;12.17;6.40;;;;;;;1.38;86.44;102497.28;5056511;28;20217;-80
2022/02/27 08:02:07;;;;;;;10.83;6.00;;;;;;;1.46;86.62;102498.56;5056873;28;20209;-80
2022/02/27 08:04:35;;;;;;;7.50;6.33;;;;;;;1.48;86.46;102507.25;5057112;28;20233;-80
2022/02/27 08:07:03;;;;;;;8.67;6.37;;;;;;;1.49;86.69;102509.03;5056228;28;20284;-79
2022/02/27 08:09:29;;;;;;;7.43;5.90;;;;;;;1.51;86.46;102503.97;5056342;28;20201;-79
2022/02/27 08:11:56;;;;;;;7.80;5.70;;;;;;;1.58;86.26;102509.47;5055960;28;20698;-81
2022/02/27 08:14:22;;;;;;;6.93;5.57;;;;;;;1.69;85.19;102515.19;5056171;28;20606;-79
2022/02/27 08:16:48;;;;;;;6.93;4.97;;;;;;;1.69;85.82;102528.06;5056083;28;20209;-80
2022/02/27 08:19:15;;;;;;;8.87;5.63;;;;;;;1.69;86.46;102502.31;5053278;28;20252;-78
2022/02/27 08:21:43;;;;;;;7.27;4.90;;;;;;;1.73;86.76;102499.09;5046016;28;20259;-78
2022/02/27 08:24:09;;;;;;;6.63;4.90;;;;;;;1.85;85.77;102514.28;5048607;28;20252;-78
2022/02/27 08:26:36;;;;;;;12.30;5.50;;;;;;;1.85;85.59;102529.72;5034072;28;20214;-79
2022/02/27 08:29:04;;;;;;;10.57;5.10;;;;;;;1.91;85.80;102530.03;5034430;28;20215;-77
2022/02/27 08:31:31;;;;;;;7.70;6.00;;;;;;;1.87;85.96;102527.22;5042469;28;20268;-77
2022/02/27 08:33:57;;;;;;;6.63;4.50;;;;;;;1.93;85.96;102518.09;5053314;28;20248;-77
2022/02/27 08:36:24;;;;;;;13.30;5.63;;;;;;;1.90;86.22;102522.22;5053734;28;20263;-78
2022/02/27 08:38:51;;;;;;;7.17;5.53;;;;;;;1.94;86.37;102513.84;5054264;28;20212;-77
2022/02/27 08:41:18;;;;;;;5.87;5.07;;;;;;;1.98;86.26;102520.91;5053487;28;20547;-76
2022/02/27 08:43:44;;;;;;;7.73;5.10;;;;;;;2.11;85.93;102535.28;5054077;28;20637;-78
2022/02/27 08:46:10;;;;;;;10.50;5.23;;;;;;;2.15;85.33;102548.38;5053666;28;20273;-78
2022/02/27 08:48:37;;;;;;;11.23;5.97;;;;;;;2.17;85.17;102549.34;5053535;28;20267;-77
2022/02/27 08:51:03;;;;;;;7.53;5.80;;;;;;;2.26;84.81;102559.25;5053283;28;20225;-79
2022/02/27 08:53:30;;;;;;;7.17;5.30;;;;;;;2.31;84.24;102569.78;5053649;28;20278;-77
2022/02/27 08:55:57;;;;;;;6.57;4.83;;;;;;;2.29;84.09;102577.41;5053817;28;20225;-78
2022/02/27 08:58:24;;;;;;;8.40;5.43;;;;;;;2.36;83.74;102574.34;5053594;28;20257;-78
2022/02/27 09:00:50;;;;;;;7.27;5.87;;;;;;;2.44;84.05;102582.47;5052785;28;20197;-77
2022/02/27 09:03:16;;;;;;;6.57;5.47;;;;;;;2.47;84.02;102585.16;5053322;28;20225;-77
2022/02/27 09:05:43;;;;;;;6.90;4.53;;;;;;;2.49;83.84;102587.81;5053615;28;20221;-78
2022/02/27 09:08:10;;;;;;;6.25;5.40;;;;;;;2.55;82.44;102607.03;5051571;28;20473;-78
2022/02/27 09:10:36;;;;;;;8.43;5.70;;;;;;;2.63;82.72;102612.56;5055046;28;20206;-79
2022/02/27 09:13:04;;;;;;;5.33;4.33;;;;;;;2.76;82.03;102620.09;5055869;28;20647;-79
2022/02/27 09:15:30;;;;;;;6.37;4.47;;;;;;;2.85;81.11;102640.28;5054699;28;20203;-80
2022/02/27 09:17:56;;;;;;;5.20;4.47;;;;;;;2.93;80.36;102664.78;5055020;28;20202;-80
2022/02/27 09:20:23;;;;;;;4.40;3.90;;;;;;;3.01;78.67;102692.63;5054066;28;20206;-78
2022/02/27 09:22:49;;;;;;;4.97;4.10;;;;;;;3.01;78.05;102721.88;5039846;28;20233;-79
2022/02/27 09:25:16;;;;;;;6.37;4.50;;;;;;;3.04;78.14;102728.91;5041243;28;20833;-79
2022/02/27 09:27:42;;;;;;;4.90;4.40;;;;;;;3.10;78.10;102739.53;5038751;28;20253;-80
2022/02/27 09:30:12;;;;;;;4.63;4.23;;;;;;;3.22;77.30;102752.13;5037050;28;20208;-78
2022/02/27 09:32:38;;;;;;;4.67;3.97;;;;;;;3.20;77.35;102767.53;5036052;28;20231;-79
2022/02/27 09:35:06;;;;;;;4.50;4.10;;;;;;;3.22;77.18;102762.47;5036239;28;20606;-79
2022/02/27 09:37:32;;;;;;;4.37;3.97;;;;;;;3.21;76.94;102769.34;5036365;28;20769;-79
2022/02/27 09:39:59;;;;;;;6.10;4.20;;;;;;;3.26;77.47;102783.31;5036582;28;20213;-80
2022/02/27 09:42:29;;;;;;;7.93;4.73;;;;;;;3.36;76.67;102782.97;5040342;28;20210;-78
2022/02/27 09:44:55;;;;;;;5.97;4.43;;;;;;;3.42;75.50;102808.19;5039215;28;20273;-80
2022/02/27 09:47:23;;;;;;;5.70;3.90;;;;;;;3.49;75.24;102828.34;5035563;28;20212;-79
2022/02/27 09:49:50;;;;;;;5.27;4.20;;;;;;;3.51;75.91;102824.13;5050240;28;20552;-79
2022/02/27 09:52:18;;;;;;;6.30;3.97;;;;;;;3.53;74.56;102850.03;5056070;28;20225;-79
2022/02/27 09:54:45;;;;;;;4.87;3.70;;;;;;;3.61;75.21;102821.97;5040904;28;20580;-80
2022/02/27 09:57:14;;;;;;;4.13;3.73;;;;;;;3.66;74.29;102852.38;5035757;28;20209;-79
2022/02/27 09:59:41;;;;;;;4.50;3.87;;;;;;;3.70;74.53;102864.63;5044887;28;20670;-79
2022/02/27 10:02:08;;;;;;;7.93;4.37;;;;;;;3.67;73.36;102869.66;5043920;28;20349;-79
2022/02/27 10:04:37;;;;;;;5.23;4.73;;;;;;;3.74;73.92;102876.00;5044135;28;20228;-79
2022/02/27 10:07:09;;;;;;;7.33;6.30;;;;;;;3.76;76.09;102820.13;5045229;28;20203;-80
2022/02/27 10:09:37;;;;;;;7.20;5.23;;;;;;;3.83;76.21;102816.16;5043609;28;20204;-80
2022/02/27 10:12:15;;;;;;;6.13;4.73;;;;;;;3.90;76.13;102794.94;5042978;28;20205;-79
2022/02/27 10:14:42;;;;;;;11.30;6.93;;;;;;;3.98;76.45;102801.34;5042865;28;20212;-78
2022/02/27 10:17:09;;;;;;;8.37;6.67;;;;;;;4.07;76.71;102783.69;5043722;28;20549;-80
2022/02/27 10:19:39;;;;;;;15.43;6.67;;;;;;;4.11;76.19;102800.25;5046291;28;20564;-80
2022/02/27 10:22:08;;;;;;;6.93;6.23;;;;;;;4.09;77.54;102778.59;5044902;28;20192;-80
2022/02/27 10:24:37;;;;;;;7.10;6.40;;;;;;;4.12;76.74;102776.16;5043373;28;20283;-79
2022/02/27 10:27:10;;;;;;;8.53;7.63;;;;;;;4.10;77.34;102772.59;5042007;28;20244;-79
2022/02/27 10:29:37;;;;;;;7.97;6.43;;;;;;;4.15;78.08;102753.03;5044067;28;20201;-79
2022/02/27 10:32:04;;;;;;;8.67;7.47;;;;;;;4.20;77.59;102745.47;5040995;28;20989;-79
2022/02/27 10:34:33;;;;;;;6.83;6.33;;;;;;;4.27;77.19;102751.00;5045883;28;20462;-77
2022/02/27 10:37:04;;;;;;;7.70;5.93;;;;;;;4.37;77.08;102760.91;5059803;28;20261;-77
2022/02/27 10:39:33;;;;;;;9.10;6.10;;;;;;;4.46;75.00;102794.06;5052911;28;20262;-78
2022/02/27 10:42:12;;;;;;;6.87;5.50;;;;;;;4.46;75.72;102800.91;5051732;28;20264;-77
2022/02/27 10:44:43;;;;;;;9.50;5.67;;;;;;;4.59;75.95;102795.47;5042095;28;20202;-79
2022/02/27 10:47:17;;;;;;;6.90;6.20;;;;;;;4.65;75.14;102806.09;5044974;28;20580;-78
2022/02/27 10:49:44;;;;;;;7.13;5.07;;;;;;;4.73;73.95;102822.81;5045693;28;20208;-78
2022/02/27 10:52:19;;;;;;;6.60;5.07;;;;;;;4.82;72.21;102870.66;5043813;28;20193;-78
2022/02/27 10:54:48;;;;;;;5.27;4.80;;;;;;;4.84;73.23;102845.72;5043948;28;20189;-78
2022/02/27 10:57:32;;;;;;;5.40;4.53;;;;;;;4.90;71.36;102895.16;5043808;28;20227;-78
2022/02/27 11:00:05;;;;;;;5.90;5.40;;;;;;;5.00;70.69;102906.81;5043001;28;20650;-78
2022/02/27 11:02:34;;;;;;;9.67;7.77;;;;;;;5.01;73.90;102882.66;5043773;28;20328;-80
2022/02/27 11:05:02;;;;;;;9.43;7.23;;;;;;;5.06;74.82;102819.94;5043033;28;20212;-79
2022/02/27 11:07:30;;;;;;;10.73;7.40;;;;;;;5.13;76.12;102784.81;5043434;28;20614;-78
2022/02/27 11:09:57;;;;;;;11.10;6.70;;;;;;;5.22;75.55;102777.44;5044330;28;20255;-79
2022/02/27 11:12:23;;;;;;;5.83;5.23;;;;;;;5.37;72.01;102832.44;5042577;28;20998;-78
2022/02/27 11:14:53;;;;;;;3.17;2.87;;;;;;;5.45;67.03;102969.16;5044698;28;20551;-80
2022/02/27 11:17:20;;;;;;;4.87;3.13;;;;;;;5.51;64.36;103083.38;5043909;28;20201;-80
2022/02/27 11:19:47;;;;;;;7.13;3.53;;;;;;;5.54;64.02;103131.06;5047279;28;20635;-80
2022/02/27 11:22:13;;;;;;;8.60;3.53;;;;;;;5.64;63.39;103162.56;5044766;28;20199;-79
2022/02/27 11:24:43;;;;;;;4.53;3.20;;;;;;;5.77;64.74;103139.00;5043770;28;20264;-79
2022/02/27 11:27:11;;;;;;;3.83;2.90;;;;;;;5.84;66.21;103101.25;5043331;28;20263;-79
2022/02/27 11:29:38;;;;;;;3.83;2.90;;;;;;;5.93;62.58;103110.31;5044842;28;20247;-80
2022/02/27 11:32:05;;;;;;;5.17;2.90;;;;;;;5.97;62.95;103179.66;5045566;28;20254;-82